Time,TemperatureF,DewpointF,PressureIn,WindDirection,WindDirectionDegrees,WindSpeedMPH,WindSpeedGustMPH,Humidity,HourlyPrecipIn,Conditions,Clouds,dailyrainin,SoftwareType,DateUTC
2013-02-20 00:02:00,68.0,65.0,30.08,East,100,0.0,0.0,90,0.00,,,0.00,,2013-02-20 05:02:00,
2013-02-20 00:12:00,68.0,65.0,30.08,East,100,0.0,0.0,90,0.00,,,0.00,,2013-02-20 05:12:00,
2013-02-20 00:22:00,68.0,65.0,30.08,East,100,0.0,0.0,90,0.00,,,0.00,,2013-02-20 05:22:00,
2013-02-20 00:32:00,68.0,65.0,30.06,East,100,0.0,0.0,90,0.00,,,0.00,,2013-02-20 05:32:00,
2013-02-20 00:43:00,68.0,65.0,30.06,East,100,0.0,0.0,90,0.00,,,0.00,,2013-02-20 05:43:00,
2013-02-20 00:52:00,68.0,65.0,30.08,East,100,0.0,0.0,91,0.00,,,0.00,,2013-02-20 05:52:00,
2013-02-20 01:02:00,68.0,65.0,30.08,East,100,0.0,0.0,91,0.00,,,0.00,,2013-02-20 06:02:00,
2013-02-20 01:11:00,68.0,65.0,30.07,East,100,0.0,0.0,90,0.00,,,0.00,,2013-02-20 06:11:00,
2013-02-20 01:22:00,68.0,65.0,30.07,East,100,0.0,0.0,90,0.00,,,0.00,,2013-02-20 06:22:00,
2013-02-20 01:32:00,68.0,65.0,30.07,East,100,0.0,0.0,90,0.00,,,0.00,,2013-02-20 06:32:00,
2013-02-20 01:42:00,68.0,65.0,30.07,East,100,0.0,0.0,90,0.00,,,0.00,,2013-02-20 06:42:00,
2013-02-20 01:52:00,67.0,64.0,30.06,East,100,0.0,0.0,89,0.00,,,0.00,,2013-02-20 06:52:00,
2013-02-20 02:01:00,67.0,63.0,30.06,East,100,0.0,0.0,88,0.00,,,0.00,,2013-02-20 07:01:00,
2013-02-20 02:11:00,67.0,63.0,30.06,East,100,0.0,0.0,88,0.00,,,0.00,,2013-02-20 07:11:00,
2013-02-20 02:21:00,67.0,64.0,30.05,East,100,0.0,0.0,89,0.00,,,0.00,,2013-02-20 07:21:00,
2013-02-20 02:31:00,68.0,65.0,30.05,East,100,0.0,0.0,89,0.00,,,0.00,,2013-02-20 07:31:00,
2013-02-20 02:42:00,68.0,65.0,30.05,East,100,0.0,0.0,89,0.00,,,0.00,,2013-02-20 07:42:00,
2013-02-20 02:52:00,68.0,65.0,30.04,NNE,21,4.0,5.0,89,0.00,,,0.00,,2013-02-20 07:52:00,
2013-02-20 03:05:00,68.0,65.0,30.04,NNE,21,0.0,5.0,89,0.00,,,0.00,,2013-02-20 08:05:00,
2013-02-20 03:11:00,68.0,65.0,30.04,NNE,21,0.0,5.0,89,0.00,,,0.00,,2013-02-20 08:11:00,
2013-02-20 03:21:00,68.0,65.0,30.04,SSW,206,0.0,1.0,90,0.06,,,0.06,,2013-02-20 08:21:00,
2013-02-20 03:31:00,68.0,65.0,30.04,SSW,206,1.0,5.0,90,0.06,,,0.06,,2013-02-20 08:31:00,
2013-02-20 03:42:00,68.0,65.0,30.04,SSW,206,1.0,5.0,90,0.06,,,0.06,,2013-02-20 08:42:00,
2013-02-20 03:52:00,68.0,66.0,30.03,SSW,206,0.0,0.0,92,0.07,,,0.07,,2013-02-20 08:52:00,
2013-02-20 04:01:00,68.0,66.0,30.04,SSW,206,0.0,0.0,92,0.08,,,0.08,,2013-02-20 09:01:00,
2013-02-20 04:11:00,68.0,66.0,30.04,SSW,206,0.0,0.0,92,0.08,,,0.08,,2013-02-20 09:11:00,
2013-02-20 04:21:00,68.0,66.0,30.04,SSW,206,0.0,0.0,93,0.07,,,0.13,,2013-02-20 09:21:00,
2013-02-20 04:31:00,68.0,66.0,30.03,SSW,206,0.0,1.0,93,0.10,,,0.16,,2013-02-20 09:31:00,
2013-02-20 04:42:00,68.0,66.0,30.03,SSW,206,0.0,1.0,93,0.10,,,0.16,,2013-02-20 09:42:00,
2013-02-20 04:52:00,67.0,65.0,30.03,NW,306,1.0,5.0,93,0.11,,,0.18,,2013-02-20 09:52:00,
2013-02-20 05:01:00,68.0,65.0,30.03,NNE,14,4.0,10.0,91,0.11,,,0.19,,2013-02-20 10:01:00,
2013-02-20 05:12:00,68.0,65.0,30.03,NNE,14,4.0,10.0,91,0.11,,,0.19,,2013-02-20 10:12:00,
2013-02-20 05:22:00,67.0,65.0,30.04,NNW,330,3.0,9.0,94,0.15,,,0.28,,2013-02-20 10:22:00,
2013-02-20 05:32:00,67.0,65.0,28.65,NNW,330,2.0,5.0,94,0.12,,,0.28,,2013-02-20 10:32:00,
2013-02-20 05:42:00,67.0,65.0,28.65,NNW,330,2.0,5.0,94,0.12,,,0.28,,2013-02-20 10:42:00,
2013-02-20 05:52:00,67.0,66.0,30.05,North,355,5.0,9.0,95,0.18,,,0.36,,2013-02-20 10:52:00,
2013-02-20 06:02:00,67.0,66.0,30.06,North,1,2.0,7.0,95,0.21,,,0.40,,2013-02-20 11:02:00,
2013-02-20 06:11:00,68.0,67.0,30.06,NE,45,7.0,9.0,95,0.13,,,0.41,,2013-02-20 11:11:00,
2013-02-20 06:21:00,68.0,67.0,30.06,NE,45,7.0,9.0,95,0.13,,,0.41,,2013-02-20 11:21:00,
2013-02-20 06:32:00,68.0,67.0,30.06,NE,45,6.0,11.0,95,0.13,,,0.41,,2013-02-20 11:32:00,
2013-02-20 06:42:00,68.0,67.0,30.06,NE,45,6.0,11.0,95,0.13,,,0.41,,2013-02-20 11:42:00,
2013-02-20 06:52:00,68.0,67.0,27.44,NE,39,4.0,7.0,96,0.05,,,0.41,,2013-02-20 11:52:00,
2013-02-20 07:02:00,68.0,67.0,27.44,NE,38,8.0,11.0,96,0.01,,,0.41,,2013-02-20 12:02:00,
2013-02-20 07:12:00,68.0,67.0,27.44,NE,38,8.0,11.0,96,0.01,,,0.41,,2013-02-20 12:12:00,
2013-02-20 07:22:00,67.0,66.0,30.08,NE,46,4.0,10.0,96,0.01,,,0.41,,2013-02-20 12:22:00,
2013-02-20 07:32:00,67.0,66.0,30.08,NE,46,0.0,3.0,96,0.00,,,0.41,,2013-02-20 12:32:00,
2013-02-20 07:42:00,67.0,66.0,30.08,NE,46,0.0,3.0,96,0.00,,,0.41,,2013-02-20 12:42:00,
2013-02-20 07:53:00,67.0,66.0,30.09,NE,46,6.0,9.0,96,0.00,,,0.41,,2013-02-20 12:53:00,
2013-02-20 08:01:00,67.0,66.0,28.69,NE,36,6.0,11.0,96,0.00,,,0.41,,2013-02-20 13:01:00,
2013-02-20 08:11:00,67.0,66.0,28.69,NE,36,6.0,11.0,96,0.00,,,0.41,,2013-02-20 13:11:00,
2013-02-20 08:22:00,67.0,66.0,26.41,NE,41,7.0,12.0,96,0.00,,,0.41,,2013-02-20 13:22:00,
2013-02-20 08:32:00,67.0,66.0,26.41,NE,45,8.0,13.0,96,0.00,,,0.41,,2013-02-20 13:32:00,
2013-02-20 08:42:00,67.0,66.0,26.41,NE,45,8.0,13.0,96,0.00,,,0.41,,2013-02-20 13:42:00,
2013-02-20 08:52:00,67.0,66.0,26.41,NNE,29,5.0,13.0,96,0.00,,,0.41,,2013-02-20 13:52:00,
2013-02-20 09:01:00,68.0,67.0,26.41,NNE,15,4.0,13.0,97,0.00,,,0.41,,2013-02-20 14:01:00,
2013-02-20 09:11:00,68.0,67.0,26.41,NNE,15,4.0,13.0,97,0.00,,,0.41,,2013-02-20 14:11:00,
2013-02-20 09:21:00,68.0,67.0,30.09,North,3,7.0,11.0,96,0.00,,,0.41,,2013-02-20 14:21:00,
2013-02-20 09:32:00,68.0,67.0,30.09,North,7,6.0,12.0,96,0.00,,,0.41,,2013-02-20 14:32:00,
2013-02-20 09:42:00,68.0,67.0,30.09,North,7,6.0,12.0,96,0.00,,,0.41,,2013-02-20 14:42:00,
2013-02-20 09:52:00,68.0,67.0,30.11,NNE,17,5.0,10.0,96,0.00,,,0.41,,2013-02-20 14:52:00,
2013-02-20 10:01:00,68.0,67.0,26.41,North,7,5.0,11.0,96,0.00,,,0.41,,2013-02-20 15:01:00,
2013-02-20 10:11:00,69.0,68.0,30.11,NNE,28,4.0,6.0,96,0.00,,,0.41,,2013-02-20 15:11:00,
2013-02-20 10:22:00,69.0,68.0,30.11,NNE,28,4.0,6.0,96,0.00,,,0.41,,2013-02-20 15:22:00,
2013-02-20 10:32:00,69.0,68.0,30.10,NNE,28,2.0,9.0,96,0.00,,,0.41,,2013-02-20 15:32:00,
2013-02-20 10:42:00,69.0,68.0,30.10,NE,38,5.0,10.0,96,0.00,,,0.41,,2013-02-20 15:42:00,
2013-02-20 10:52:00,69.0,68.0,30.10,NE,38,5.0,10.0,96,0.00,,,0.41,,2013-02-20 15:52:00,
2013-02-20 11:01:00,70.0,69.0,30.10,NE,49,3.0,10.0,96,0.00,,,0.41,,2013-02-20 16:01:00,
2013-02-20 11:12:00,70.0,69.0,30.10,NE,49,3.0,10.0,96,0.00,,,0.41,,2013-02-20 16:12:00,
2013-02-20 11:21:00,71.0,69.0,30.10,NNE,32,3.0,10.0,94,0.00,,,0.41,,2013-02-20 16:21:00,
2013-02-20 11:32:00,71.0,69.0,30.09,NE,36,6.0,10.0,94,0.00,,,0.41,,2013-02-20 16:32:00,
2013-02-20 11:42:00,71.0,69.0,30.09,NE,36,6.0,10.0,94,0.00,,,0.41,,2013-02-20 16:42:00,
2013-02-20 11:52:00,72.0,69.0,30.07,NE,39,7.0,11.0,91,0.00,,,0.41,,2013-02-20 16:52:00,
2013-02-20 12:01:00,73.0,70.0,30.07,NE,37,8.0,12.0,91,0.00,,,0.41,,2013-02-20 17:01:00,
2013-02-20 12:11:00,73.0,70.0,30.07,ENE,61,7.0,10.0,89,0.00,,,0.41,,2013-02-20 17:11:00,
2013-02-20 12:21:00,73.0,70.0,30.07,ENE,61,7.0,10.0,89,0.00,,,0.41,,2013-02-20 17:21:00,
2013-02-20 12:32:00,74.0,71.0,30.07,ENE,57,7.0,11.0,89,0.00,,,0.41,,2013-02-20 17:32:00,
2013-02-20 12:42:00,74.0,71.0,30.07,ENE,57,7.0,11.0,89,0.00,,,0.41,,2013-02-20 17:42:00,
2013-02-20 12:52:00,74.0,70.0,25.16,ENE,73,10.0,14.0,86,0.00,,,0.41,,2013-02-20 17:52:00,
2013-02-20 13:02:00,74.0,69.0,25.14,ENE,61,10.0,13.0,84,0.00,,,0.41,,2013-02-20 18:02:00,
2013-02-20 13:11:00,74.0,69.0,25.14,ENE,61,10.0,13.0,84,0.00,,,0.41,,2013-02-20 18:11:00,
2013-02-20 13:22:00,75.0,69.0,25.14,North,2,6.0,11.0,81,0.00,,,0.41,,2013-02-20 18:22:00,
2013-02-20 13:32:00,75.0,68.0,25.14,NNE,13,2.0,10.0,79,0.00,,,0.41,,2013-02-20 18:32:00,
2013-02-20 13:42:00,75.0,68.0,25.14,NNE,13,2.0,10.0,79,0.00,,,0.41,,2013-02-20 18:42:00,
2013-02-20 13:52:00,76.0,69.0,26.41,NE,51,5.0,11.0,79,0.00,,,0.41,,2013-02-20 18:52:00,
2013-02-20 14:01:00,76.0,69.0,26.41,NE,47,8.0,12.0,78,0.00,,,0.41,,2013-02-20 19:01:00,
2013-02-20 14:11:00,76.0,69.0,26.41,NE,47,8.0,12.0,78,0.00,,,0.41,,2013-02-20 19:11:00,
2013-02-20 14:21:00,75.0,68.0,26.41,NE,52,8.0,13.0,79,0.00,,,0.41,,2013-02-20 19:21:00,
2013-02-20 14:31:00,76.0,70.0,26.41,ENE,77,11.0,15.0,83,0.00,,,0.41,,2013-02-20 19:31:00,
2013-02-20 14:41:00,76.0,70.0,26.41,ENE,77,11.0,15.0,83,0.00,,,0.41,,2013-02-20 19:41:00,
2013-02-20 14:52:00,76.0,70.0,30.03,ENE,58,13.0,17.0,82,0.00,,,0.41,,2013-02-20 19:52:00,
2013-02-20 15:01:00,76.0,70.0,26.42,ENE,71,15.0,17.0,82,0.00,,,0.41,,2013-02-20 20:01:00,
2013-02-20 15:11:00,77.0,70.0,30.02,East,79,13.0,15.0,78,0.00,,,0.41,,2013-02-20 20:11:00,
2013-02-20 15:21:00,77.0,70.0,30.02,East,79,13.0,15.0,78,0.00,,,0.41,,2013-02-20 20:21:00,
2013-02-20 15:31:00,78.0,70.0,30.02,ENE,74,11.0,15.0,77,0.00,,,0.41,,2013-02-20 20:31:00,
2013-02-20 15:41:00,79.0,70.0,30.02,East,86,11.0,14.0,75,0.00,,,0.41,,2013-02-20 20:41:00,
2013-02-20 15:52:00,79.0,70.0,30.02,East,86,11.0,14.0,75,0.00,,,0.41,,2013-02-20 20:52:00,
2013-02-20 16:01:00,78.0,69.0,30.01,East,81,12.0,15.0,74,0.00,,,0.41,,2013-02-20 21:01:00,
2013-02-20 16:11:00,77.0,69.0,30.00,ENE,77,9.0,14.0,76,0.00,,,0.41,,2013-02-20 21:11:00,
2013-02-20 16:21:00,77.0,69.0,30.00,ENE,77,9.0,14.0,76,0.00,,,0.41,,2013-02-20 21:21:00,
2013-02-20 16:31:00,77.0,69.0,26.41,ENE,69,8.0,12.0,77,0.00,,,0.41,,2013-02-20 21:31:00,
2013-02-20 16:42:00,77.0,69.0,26.41,ENE,69,8.0,12.0,77,0.00,,,0.41,,2013-02-20 21:42:00,
2013-02-20 16:52:00,79.0,69.0,30.00,ENE,75,6.0,11.0,71,0.00,,,0.41,,2013-02-20 21:52:00,
2013-02-20 17:01:00,78.0,69.0,30.01,ENE,61,6.0,9.0,73,0.00,,,0.41,,2013-02-20 22:01:00,
2013-02-20 17:11:00,79.0,69.0,26.41,ENE,70,5.0,8.0,72,0.00,,,0.41,,2013-02-20 22:11:00,
2013-02-20 17:21:00,79.0,69.0,26.41,ENE,70,5.0,8.0,72,0.00,,,0.41,,2013-02-20 22:21:00,
2013-02-20 17:31:00,80.0,70.0,30.00,ENE,73,5.0,7.0,71,0.00,,,0.41,,2013-02-20 22:31:00,
2013-02-20 17:43:00,80.0,70.0,30.00,ENE,73,5.0,7.0,71,0.00,,,0.41,,2013-02-20 22:43:00,
2013-02-20 17:52:00,81.0,69.0,26.41,ENE,73,4.0,6.0,68,0.00,,,0.41,,2013-02-20 22:52:00,
2013-02-20 18:01:00,81.0,69.0,30.01,ENE,73,5.0,6.0,68,0.00,,,0.41,,2013-02-20 23:01:00,
2013-02-20 18:12:00,79.0,69.0,30.01,East,90,9.0,10.0,71,0.00,,,0.41,,2013-02-20 23:12:00,
2013-02-20 18:22:00,79.0,69.0,30.01,East,90,9.0,10.0,71,0.00,,,0.41,,2013-02-20 23:22:00,
2013-02-20 18:32:00,77.0,68.0,30.01,East,90,8.0,10.0,74,0.00,,,0.41,,2013-02-20 23:32:00,
2013-02-20 18:42:00,77.0,68.0,30.01,East,90,8.0,10.0,74,0.00,,,0.41,,2013-02-20 23:42:00,
2013-02-20 18:53:00,75.0,68.0,30.01,East,90,7.0,9.0,78,0.00,,,0.41,,2013-02-20 23:53:00,
2013-02-20 19:03:00,75.0,68.0,30.02,East,90,6.0,9.0,80,0.00,,,0.41,,2013-02-21 00:03:00,
2013-02-20 19:11:00,75.0,68.0,30.02,East,90,6.0,9.0,80,0.00,,,0.41,,2013-02-21 00:11:00,
2013-02-20 19:22:00,74.0,68.0,30.02,East,89,6.0,7.0,83,0.00,,,0.41,,2013-02-21 00:22:00,
2013-02-20 19:32:00,73.0,68.0,30.02,East,89,5.0,7.0,84,0.00,,,0.41,,2013-02-21 00:32:00,
2013-02-20 19:42:00,73.0,68.0,30.02,East,89,5.0,7.0,84,0.00,,,0.41,,2013-02-21 00:42:00,
2013-02-20 19:52:00,73.0,69.0,26.41,East,89,5.0,7.0,86,0.00,,,0.41,,2013-02-21 00:52:00,
2013-02-20 20:01:00,73.0,69.0,26.41,East,89,1.0,7.0,86,0.00,,,0.41,,2013-02-21 01:01:00,
2013-02-20 20:11:00,73.0,69.0,26.41,East,89,1.0,7.0,86,0.00,,,0.41,,2013-02-21 01:11:00,
2013-02-20 20:21:00,72.0,68.0,30.05,East,89,0.0,4.0,87,0.00,,,0.41,,2013-02-21 01:21:00,
2013-02-20 20:32:00,72.0,68.0,26.41,East,89,3.0,5.0,88,0.00,,,0.41,,2013-02-21 01:32:00,
2013-02-20 20:42:00,72.0,68.0,26.41,East,89,3.0,5.0,88,0.00,,,0.41,,2013-02-21 01:42:00,
2013-02-20 20:52:00,72.0,69.0,30.05,East,89,1.0,6.0,90,0.00,,,0.41,,2013-02-21 01:52:00,
2013-02-20 21:01:00,72.0,69.0,26.41,ENE,61,4.0,7.0,90,0.00,,,0.41,,2013-02-21 02:01:00,
2013-02-20 21:11:00,72.0,69.0,26.41,ENE,61,4.0,7.0,90,0.00,,,0.41,,2013-02-21 02:11:00,
2013-02-20 21:21:00,72.0,69.0,30.05,NE,40,5.0,7.0,91,0.00,,,0.41,,2013-02-21 02:21:00,
2013-02-20 21:32:00,72.0,70.0,30.05,NE,37,3.0,7.0,92,0.00,,,0.41,,2013-02-21 02:32:00,
2013-02-20 21:42:00,72.0,70.0,30.05,NE,37,3.0,7.0,92,0.00,,,0.41,,2013-02-21 02:42:00,
2013-02-20 21:52:00,72.0,70.0,30.05,NE,37,3.0,7.0,92,0.00,,,0.41,,2013-02-21 02:52:00,
2013-02-20 22:02:00,71.0,69.0,30.06,NE,36,4.0,10.0,92,0.00,,,0.41,,2013-02-21 03:02:00,
2013-02-20 22:12:00,71.0,69.0,30.06,NE,36,4.0,10.0,92,0.00,,,0.41,,2013-02-21 03:12:00,
2013-02-20 22:21:00,71.0,69.0,30.05,NE,36,5.0,9.0,93,0.00,,,0.41,,2013-02-21 03:21:00,
2013-02-20 22:32:00,71.0,69.0,26.41,NE,36,4.0,7.0,93,0.00,,,0.41,,2013-02-21 03:32:00,
2013-02-20 22:42:00,71.0,69.0,26.41,NE,36,4.0,7.0,93,0.00,,,0.41,,2013-02-21 03:42:00,
2013-02-20 22:52:00,71.0,69.0,30.05,NE,36,4.0,7.0,93,0.00,,,0.41,,2013-02-21 03:52:00,
2013-02-20 23:01:00,71.0,69.0,30.05,NE,36,3.0,7.0,93,0.00,,,0.41,,2013-02-21 04:01:00,
2013-02-20 23:11:00,71.0,69.0,30.05,NE,36,3.0,7.0,93,0.00,,,0.41,,2013-02-21 04:11:00,
2013-02-20 23:22:00,71.0,69.0,26.41,NE,36,3.0,7.0,94,0.00,,,0.41,,2013-02-21 04:22:00,
2013-02-20 23:32:00,71.0,69.0,26.41,NE,36,3.0,5.0,94,0.00,,,0.41,,2013-02-21 04:32:00,
2013-02-20 23:42:00,71.0,69.0,26.41,NE,36,3.0,5.0,94,0.00,,,0.41,,2013-02-21 04:42:00,
2013-02-20 23:52:00,71.0,69.0,26.41,NE,35,3.0,6.0,94,0.00,,,0.41,,2013-02-21 04:52:00,